Time;durP1;ratioP1;P1;durP2;ratioP2;P2;SDS_P1;SDS_P2;PMS_P1;PMS_P2;Temp;Humidity;BMP_temperature;BMP_pressure;BME280_temperature;BME280_humidity;BME280_pressure;Samples;Min_cycle;Max_cycle;Signal;HPM_P1;HPM_P2
2023/08/31 00:00:33;;;;;;;4.18;2.20;;;;;;;;;;5053764;28;20025;-78
2023/08/31 00:02:59;;;;;;;3.83;2.17;;;;;;;;;;5055800;28;20032;-78
2023/08/31 00:05:28;;;;;;;2.72;2.30;;;;;;;;;;5056855;28;20393;-78
2023/08/31 00:07:53;;;;;;;3.40;2.40;;;;;;;;;;5055641;28;20024;-78
2023/08/31 00:10:18;;;;;;;3.85;2.22;;;;;;;;;;5055039;28;20388;-79
2023/08/31 00:12:44;;;;;;;3.42;2.10;;;;;;;;;;5054650;28;20120;-78
2023/08/31 00:15:09;;;;;;;8.55;2.22;;;;;;;;;;5058253;28;20029;-77
2023/08/31 00:17:35;;;;;;;3.35;2.33;;;;;;;;;;5057140;28;20492;-77
2023/08/31 00:20:00;;;;;;;4.22;2.10;;;;;;;;;;5056949;28;20021;-78
2023/08/31 00:22:25;;;;;;;5.13;2.53;;;;;;;;;;5057386;28;20499;-78
2023/08/31 00:24:51;;;;;;;6.07;2.10;;;;;;;;;;5057663;28;20418;-78
2023/08/31 00:27:17;;;;;;;2.63;2.15;;;;;;;;;;5055671;28;20261;-78
2023/08/31 00:29:45;;;;;;;4.05;2.63;;;;;;;;;;5054334;28;20025;-78
2023/08/31 00:32:11;;;;;;;3.15;2.30;;;;;;;;;;5054579;28;20035;-77
2023/08/31 00:34:37;;;;;;;4.60;2.25;;;;;;;;;;5053154;28;20013;-77
2023/08/31 00:37:02;;;;;;;3.30;2.28;;;;;;;;;;5054513;28;20056;-77
2023/08/31 00:39:27;;;;;;;2.80;2.17;;;;;;;;;;5053834;28;20063;-77
2023/08/31 00:41:53;;;;;;;3.45;2.50;;;;;;;;;;5052393;28;20057;-77
2023/08/31 00:44:19;;;;;;;3.97;2.40;;;;;;;;;;5053977;28;20029;-77
2023/08/31 00:46:45;;;;;;;3.70;2.30;;;;;;;;;;5054118;28;20043;-77
2023/08/31 00:49:10;;;;;;;6.43;2.30;;;;;;;;;;5052479;28;20024;-79
2023/08/31 00:51:37;;;;;;;4.65;2.03;;;;;;;;;;5052809;28;20025;-78
2023/08/31 00:54:02;;;;;;;3.63;2.35;;;;;;;;;;5052958;28;20361;-78
2023/08/31 00:56:28;;;;;;;3.60;2.08;;;;;;;;;;5053564;28;20027;-77
2023/08/31 00:58:54;;;;;;;4.20;1.90;;;;;;;;;;5053456;28;20488;-79
2023/08/31 01:01:42;;;;;;;2.78;2.08;;;;;;;;;;5052263;28;20017;-77
2023/08/31 01:04:23;;;;;;;2.72;1.90;;;;;;;;;;5052616;28;20025;-78
2023/08/31 01:07:04;;;;;;;4.32;2.00;;;;;;;;;;5053680;28;20499;-77
2023/08/31 01:09:39;;;;;;;2.47;1.88;;;;;;;;;;5052698;28;20484;-78
2023/08/31 01:12:09;;;;;;;3.63;2.45;;;;;;;;;;5054236;28;20017;-78
2023/08/31 01:14:43;;;;;;;2.00;1.70;;;;;;;;;;5052981;28;20092;-77
2023/08/31 01:17:12;;;;;;;2.85;2.08;;;;;;;;;;5054355;28;20027;-77
2023/08/31 01:19:50;;;;;;;4.95;2.20;;;;;;;;;;5053235;28;20032;-77
2023/08/31 01:22:30;;;;;;;3.78;2.03;;;;;;;;;;5054868;28;20055;-77
2023/08/31 01:24:56;;;;;;;2.72;2.00;;;;;;;;;;5053788;28;20029;-78
2023/08/31 01:27:21;;;;;;;2.25;2.00;;;;;;;;;;5055056;28;20048;-78
2023/08/31 01:29:47;;;;;;;2.55;1.90;;;;;;;;;;5056446;28;20037;-78
2023/08/31 01:32:12;;;;;;;3.63;1.73;;;;;;;;;;5054191;28;20484;-77
2023/08/31 01:34:37;;;;;;;2.95;2.05;;;;;;;;;;5057786;28;20025;-78
2023/08/31 01:37:11;;;;;;;4.25;2.10;;;;;;;;;;5059059;28;20028;-78
2023/08/31 01:39:43;;;;;;;2.22;1.77;;;;;;;;;;5058917;28;20037;-78
2023/08/31 01:42:13;;;;;;;2.67;2.10;;;;;;;;;;5059633;28;20108;-77
2023/08/31 01:44:39;;;;;;;5.05;1.67;;;;;;;;;;5058495;28;20439;-77
2023/08/31 01:47:06;;;;;;;3.10;1.70;;;;;;;;;;5056892;28;20077;-77
2023/08/31 01:49:38;;;;;;;3.33;1.42;;;;;;;;;;5056753;28;20078;-78
2023/08/31 01:52:04;;;;;;;2.72;1.70;;;;;;;;;;5057619;28;20020;-77
2023/08/31 01:54:29;;;;;;;2.05;1.55;;;;;;;;;;5058595;28;20378;-78
2023/08/31 01:56:55;;;;;;;3.55;1.70;;;;;;;;;;5059586;28;20042;-78
2023/08/31 01:59:20;;;;;;;1.83;1.50;;;;;;;;;;5059185;28;20017;-78
2023/08/31 02:01:45;;;;;;;1.93;1.30;;;;;;;;;;5058293;28;20457;-78
2023/08/31 02:04:10;;;;;;;1.33;1.20;;;;;;;;;;5057244;28;20270;-77
2023/08/31 02:06:36;;;;;;;1.90;1.40;;;;;;;;;;5057837;28;20307;-77
2023/08/31 02:09:01;;;;;;;1.65;1.17;;;;;;;;;;5056922;28;20021;-78
2023/08/31 02:11:26;;;;;;;1.92;1.10;;;;;;;;;;5057486;28;20020;-78
2023/08/31 02:13:52;;;;;;;1.30;1.20;;;;;;;;;;5058322;28;20028;-78
2023/08/31 02:16:17;;;;;;;1.23;1.08;;;;;;;;;;5058909;28;20050;-77
2023/08/31 02:18:42;;;;;;;1.83;1.20;;;;;;;;;;5056695;28;20032;-77
2023/08/31 02:21:07;;;;;;;1.77;1.20;;;;;;;;;;5057724;28;20028;-78
2023/08/31 02:23:33;;;;;;;2.47;1.20;;;;;;;;;;5057556;28;20407;-77
2023/08/31 02:25:58;;;;;;;2.08;1.30;;;;;;;;;;5057422;28;20031;-77
2023/08/31 02:28:23;;;;;;;1.60;1.30;;;;;;;;;;5057368;28;20028;-77
2023/08/31 02:31:01;;;;;;;1.35;1.20;;;;;;;;;;5057419;28;20729;-78
2023/08/31 02:33:26;;;;;;;2.08;1.30;;;;;;;;;;5055473;28;20034;-77
2023/08/31 02:35:56;;;;;;;8.70;1.35;;;;;;;;;;5056986;28;20037;-77
2023/08/31 02:38:21;;;;;;;1.63;1.30;;;;;;;;;;5056922;28;20040;-78
2023/08/31 02:40:47;;;;;;;2.10;1.25;;;;;;;;;;5055225;28;20025;-78
2023/08/31 02:43:13;;;;;;;2.67;1.20;;;;;;;;;;5055868;28;20074;-78
2023/08/31 02:45:38;;;;;;;1.95;1.23;;;;;;;;;;5056875;28;20404;-78
2023/08/31 02:48:06;;;;;;;1.58;1.20;;;;;;;;;;5057027;28;20070;-78
2023/08/31 02:50:31;;;;;;;2.28;1.40;;;;;;;;;;5056051;28;20052;-77
2023/08/31 02:52:57;;;;;;;1.10;1.00;;;;;;;;;;5055430;28;20070;-78
2023/08/31 02:55:22;;;;;;;1.58;1.20;;;;;;;;;;5056558;28;20369;-77
2023/08/31 02:57:47;;;;;;;1.10;1.00;;;;;;;;;;5055496;28;20060;-78
2023/08/31 03:00:13;;;;;;;2.90;1.33;;;;;;;;;;5055226;28;20028;-77
2023/08/31 03:02:39;;;;;;;1.55;1.10;;;;;;;;;;5056874;28;20260;-77
2023/08/31 03:05:05;;;;;;;1.20;1.10;;;;;;;;;;5056746;28;20480;-77
2023/08/31 03:07:30;;;;;;;1.92;1.10;;;;;;;;;;5056198;28;20052;-77
2023/08/31 03:09:55;;;;;;;1.42;1.23;;;;;;;;;;5055030;28;20074;-78
2023/08/31 03:12:20;;;;;;;2.13;1.10;;;;;;;;;;5056581;28;20051;-78
2023/08/31 03:14:45;;;;;;;1.87;1.20;;;;;;;;;;5055961;28;20265;-77
2023/08/31 03:17:11;;;;;;;1.25;1.10;;;;;;;;;;5056953;28;20332;-77
2023/08/31 03:19:36;;;;;;;1.27;1.10;;;;;;;;;;5057236;28;20040;-76
2023/08/31 03:22:01;;;;;;;1.10;1.00;;;;;;;;;;5056553;28;20061;-78
2023/08/31 03:24:27;;;;;;;1.73;1.10;;;;;;;;;;5056247;28;20274;-78
2023/08/31 03:26:52;;;;;;;1.20;0.90;;;;;;;;;;5056210;28;20304;-78
2023/08/31 03:29:17;;;;;;;1.47;1.10;;;;;;;;;;5055946;28;20519;-78
2023/08/31 03:31:42;;;;;;;1.88;1.20;;;;;;;;;;5056121;28;20258;-78
2023/08/31 03:34:07;;;;;;;7.72;1.00;;;;;;;;;;5054733;28;20108;-78
2023/08/31 03:36:33;;;;;;;1.67;1.00;;;;;;;;;;5056468;28;20480;-78
2023/08/31 03:38:58;;;;;;;1.52;1.17;;;;;;;;;;5056510;28;20089;-77
2023/08/31 03:41:24;;;;;;;1.10;1.00;;;;;;;;;;5055357;28;20028;-78
2023/08/31 03:43:49;;;;;;;1.50;1.10;;;;;;;;;;5056440;28;20190;-78
2023/08/31 03:46:15;;;;;;;2.90;0.95;;;;;;;;;;5055948;28;20024;-78
2023/08/31 03:48:40;;;;;;;1.10;0.90;;;;;;;;;;5056721;28;20530;-78
2023/08/31 03:51:05;;;;;;;1.00;0.90;;;;;;;;;;5054610;28;20016;-78
2023/08/31 03:53:30;;;;;;;1.40;1.00;;;;;;;;;;5053824;28;20312;-79
2023/08/31 03:55:56;;;;;;;1.10;1.00;;;;;;;;;;5056018;28;20061;-78
2023/08/31 03:58:21;;;;;;;1.10;1.00;;;;;;;;;;5055252;28;20017;-78
2023/08/31 04:00:50;;;;;;;1.95;1.20;;;;;;;;;;5054930;28;20812;-78
2023/08/31 04:03:15;;;;;;;1.60;1.10;;;;;;;;;;5055458;28;20021;-78
2023/08/31 04:05:40;;;;;;;1.67;1.13;;;;;;;;;;5054133;28;20078;-77
2023/08/31 04:08:06;;;;;;;2.80;1.23;;;;;;;;;;5055543;28;20021;-77
2023/08/31 04:10:32;;;;;;;1.83;0.88;;;;;;;;;;5055688;28;20036;-78
2023/08/31 04:12:57;;;;;;;1.98;1.17;;;;;;;;;;5058331;28;20046;-77
2023/08/31 04:15:23;;;;;;;2.67;1.10;;;;;;;;;;5055451;28;20468;-77
2023/08/31 04:17:49;;;;;;;1.67;1.20;;;;;;;;;;5054200;28;20021;-78
2023/08/31 04:20:15;;;;;;;1.92;1.10;;;;;;;;;;5054931;28;20020;-78
2023/08/31 04:22:40;;;;;;;2.55;1.10;;;;;;;;;;5054900;28;20112;-78
2023/08/31 04:25:06;;;;;;;3.65;1.73;;;;;;;;;;5054260;28;20021;-78
2023/08/31 04:27:31;;;;;;;3.05;1.55;;;;;;;;;;5054409;28;20021;-78
2023/08/31 04:29:58;;;;;;;3.30;1.50;;;;;;;;;;5056468;28;20060;-77
2023/08/31 04:32:25;;;;;;;2.90;1.58;;;;;;;;;;5053911;28;20024;-78
2023/08/31 04:34:50;;;;;;;3.90;1.50;;;;;;;;;;5053494;28;20017;-77
2023/08/31 04:37:15;;;;;;;2.28;1.65;;;;;;;;;;5055271;28;20040;-78
2023/08/31 04:39:41;;;;;;;3.93;1.57;;;;;;;;;;5055327;28;20033;-78
2023/08/31 04:42:06;;;;;;;3.20;1.23;;;;;;;;;;5054775;28;20265;-77
2023/08/31 04:44:31;;;;;;;1.45;1.15;;;;;;;;;;5053764;28;20361;-78
2023/08/31 04:46:56;;;;;;;2.97;1.77;;;;;;;;;;5053348;28;20029;-77
2023/08/31 04:49:22;;;;;;;2.37;1.47;;;;;;;;;;5054133;28;20270;-77
2023/08/31 04:51:47;;;;;;;2.40;1.35;;;;;;;;;;5054286;28;20297;-78
2023/08/31 04:54:12;;;;;;;4.07;1.63;;;;;;;;;;5053385;28;20021;-77
2023/08/31 04:56:37;;;;;;;2.05;1.33;;;;;;;;;;5055094;28;20029;-78
2023/08/31 04:59:03;;;;;;;1.35;1.20;;;;;;;;;;5055148;28;20023;-78
2023/08/31 05:01:28;;;;;;;10.23;1.50;;;;;;;;;;5057997;28;20036;-78
2023/08/31 05:03:54;;;;;;;1.88;1.40;;;;;;;;;;5053390;28;20439;-77
2023/08/31 05:06:20;;;;;;;3.00;1.15;;;;;;;;;;5052831;28;20025;-77
2023/08/31 05:08:46;;;;;;;1.63;1.23;;;;;;;;;;5056452;28;20033;-77
2023/08/31 05:11:11;;;;;;;2.28;1.35;;;;;;;;;;5056654;28;20526;-77
2023/08/31 05:13:37;;;;;;;2.97;1.30;;;;;;;;;;5056714;28;20025;-77
2023/08/31 05:16:03;;;;;;;4.18;1.48;;;;;;;;;;5056752;28;20683;-76
2023/08/31 05:18:28;;;;;;;5.60;1.30;;;;;;;;;;5055703;28;20031;-78
2023/08/31 05:20:53;;;;;;;1.75;1.23;;;;;;;;;;5056177;28;20055;-77
2023/08/31 05:23:18;;;;;;;3.53;1.37;;;;;;;;;;5057278;28;20053;-77
2023/08/31 05:25:44;;;;;;;2.97;1.67;;;;;;;;;;5059255;28;20254;-77
2023/08/31 05:28:09;;;;;;;1.60;1.40;;;;;;;;;;5059843;28;20344;-76
2023/08/31 05:30:35;;;;;;;1.95;1.40;;;;;;;;;;5056248;28;20472;-76
2023/08/31 05:33:01;;;;;;;3.55;1.30;;;;;;;;;;5057708;28;20089;-77
2023/08/31 05:35:26;;;;;;;3.83;1.40;;;;;;;;;;5059470;28;20070;-78
2023/08/31 05:37:51;;;;;;;1.80;1.52;;;;;;;;;;5058075;28;20037;-79
2023/08/31 05:40:18;;;;;;;2.50;1.52;;;;;;;;;;5061268;28;20032;-80
2023/08/31 05:42:43;;;;;;;2.42;1.70;;;;;;;;;;5060400;28;20373;-79
2023/08/31 05:45:09;;;;;;;3.28;1.20;;;;;;;;;;5060585;28;20112;-81
2023/08/31 05:47:34;;;;;;;6.72;1.80;;;;;;;;;;5060679;28;20028;-78
2023/08/31 05:50:00;;;;;;;3.17;1.50;;;;;;;;;;5057111;28;20103;-75
2023/08/31 05:52:26;;;;;;;7.65;1.70;;;;;;;;;;5054452;28;20024;-78
2023/08/31 05:54:51;;;;;;;6.97;1.95;;;;;;;;;;5056882;28;20589;-76
2023/08/31 05:57:19;;;;;;;3.15;1.60;;;;;;;;;;5055472;28;20024;-76
2023/08/31 05:59:44;;;;;;;3.25;1.50;;;;;;;;;;5055780;28;20192;-75
2023/08/31 06:02:09;;;;;;;6.30;2.00;;;;;;;;;;5055575;28;20136;-75
2023/08/31 06:04:35;;;;;;;3.27;1.67;;;;;;;;;;5054113;28;20270;-75
2023/08/31 06:07:00;;;;;;;3.78;1.67;;;;;;;;;;5055398;28;20262;-74
2023/08/31 06:09:25;;;;;;;4.00;1.70;;;;;;;;;;5055481;28;20083;-75
2023/08/31 06:11:50;;;;;;;4.47;1.40;;;;;;;;;;5055771;28;20120;-76
2023/08/31 06:14:16;;;;;;;3.38;1.63;;;;;;;;;;5055510;28;20366;-75
2023/08/31 06:16:41;;;;;;;3.50;1.60;;;;;;;;;;5055088;28;20071;-76
2023/08/31 06:19:06;;;;;;;3.10;1.60;;;;;;;;;;5055759;28;20040;-78
2023/08/31 06:21:31;;;;;;;3.00;1.50;;;;;;;;;;5056412;28;20361;-75
2023/08/31 06:23:57;;;;;;;3.97;1.60;;;;;;;;;;5056405;28;20103;-76
2023/08/31 06:26:22;;;;;;;3.78;1.73;;;;;;;;;;5056700;28;20029;-74
2023/08/31 06:28:47;;;;;;;5.68;1.63;;;;;;;;;;5055324;28;20031;-75
2023/08/31 06:31:13;;;;;;;6.65;1.70;;;;;;;;;;5054598;28;20029;-76
2023/08/31 06:33:38;;;;;;;3.88;1.75;;;;;;;;;;5053643;28;20108;-75
2023/08/31 06:36:03;;;;;;;4.22;1.50;;;;;;;;;;5054650;28;20660;-75
2023/08/31 06:38:29;;;;;;;3.25;1.60;;;;;;;;;;5053581;28;20027;-74
2023/08/31 06:40:58;;;;;;;1.75;1.40;;;;;;;;;;5052816;28;20033;-75
2023/08/31 06:43:26;;;;;;;3.05;1.65;;;;;;;;;;5054261;28;20021;-74
2023/08/31 06:45:52;;;;;;;4.13;1.75;;;;;;;;;;5054927;28;20021;-74
2023/08/31 06:48:17;;;;;;;2.63;1.60;;;;;;;;;;5054745;28;20043;-75
2023/08/31 06:50:42;;;;;;;3.30;1.52;;;;;;;;;;5054530;28;20438;-74
2023/08/31 06:53:07;;;;;;;8.93;1.63;;;;;;;;;;5054791;28;20063;-75
2023/08/31 06:55:33;;;;;;;2.58;1.50;;;;;;;;;;5054762;28;20250;-75
2023/08/31 06:57:59;;;;;;;5.28;1.73;;;;;;;;;;5053267;28;20090;-74
2023/08/31 07:00:24;;;;;;;6.50;2.00;;;;;;;;;;5054505;28;20051;-75
2023/08/31 07:02:49;;;;;;;6.35;2.00;;;;;;;;;;5054482;28;20021;-75
2023/08/31 07:05:14;;;;;;;3.47;2.07;;;;;;;;;;5054468;28;20473;-74
2023/08/31 07:07:40;;;;;;;3.55;1.92;;;;;;;;;;5054940;28;20741;-74
2023/08/31 07:10:06;;;;;;;3.20;1.80;;;;;;;;;;5054450;28;20341;-72
2023/08/31 07:12:32;;;;;;;5.57;2.10;;;;;;;;;;5053714;28;20259;-74
2023/08/31 07:14:57;;;;;;;4.07;1.60;;;;;;;;;;5056055;28;20027;-74
2023/08/31 07:17:22;;;;;;;2.67;1.67;;;;;;;;;;5053369;28;20029;-73
2023/08/31 07:19:48;;;;;;;4.05;1.80;;;;;;;;;;5053802;28;20265;-74
2023/08/31 07:22:13;;;;;;;3.95;1.65;;;;;;;;;;5053764;28;20049;-76
2023/08/31 07:24:38;;;;;;;5.50;1.90;;;;;;;;;;5052687;28;20029;-76
2023/08/31 07:27:04;;;;;;;2.92;1.52;;;;;;;;;;5053971;28;20078;-76
2023/08/31 07:29:30;;;;;;;6.38;1.58;;;;;;;;;;5054174;28;20025;-74
2023/08/31 07:31:55;;;;;;;2.45;1.60;;;;;;;;;;5053330;28;20036;-74
2023/08/31 07:34:21;;;;;;;3.25;1.50;;;;;;;;;;5053973;28;20060;-75
2023/08/31 07:36:46;;;;;;;7.60;1.80;;;;;;;;;;5053766;28;20400;-74
2023/08/31 07:39:12;;;;;;;2.65;1.30;;;;;;;;;;5053791;28;20033;-74
2023/08/31 07:41:37;;;;;;;2.58;1.52;;;;;;;;;;5053823;28;20046;-74
2023/08/31 07:44:02;;;;;;;3.17;1.60;;;;;;;;;;5053513;28;20476;-74
2023/08/31 07:46:28;;;;;;;2.40;1.42;;;;;;;;;;5053632;28;20257;-74
2023/08/31 07:48:53;;;;;;;2.95;1.60;;;;;;;;;;5053857;28;20423;-74
2023/08/31 07:51:23;;;;;;;6.10;1.40;;;;;;;;;;5053584;28;20032;-74
2023/08/31 07:53:48;;;;;;;3.03;1.58;;;;;;;;;;5052258;28;20286;-74
2023/08/31 07:56:13;;;;;;;2.47;1.38;;;;;;;;;;5053473;28;20032;-74
2023/08/31 07:58:38;;;;;;;2.63;1.37;;;;;;;;;;5053426;28;20017;-74
2023/08/31 08:01:05;;;;;;;7.07;2.00;;;;;;;;;;5053360;28;20296;-74
2023/08/31 08:03:30;;;;;;;5.50;1.75;;;;;;;;;;5053780;28;20356;-74
2023/08/31 08:05:56;;;;;;;2.60;1.30;;;;;;;;;;5053712;28;20108;-74
2023/08/31 08:08:21;;;;;;;2.20;1.20;;;;;;;;;;5053455;28;20032;-74
2023/08/31 08:10:46;;;;;;;4.82;2.05;;;;;;;;;;5053322;28;20024;-74
2023/08/31 08:13:11;;;;;;;3.03;1.40;;;;;;;;;;5051974;28;20029;-74
2023/08/31 08:15:37;;;;;;;4.60;1.35;;;;;;;;;;5053586;28;20024;-74
2023/08/31 08:18:03;;;;;;;2.97;1.13;;;;;;;;;;5051846;28;20025;-74
2023/08/31 08:20:28;;;;;;;2.30;1.23;;;;;;;;;;5052987;28;20070;-74
2023/08/31 08:22:54;;;;;;;2.03;1.20;;;;;;;;;;5053016;28;20472;-74
2023/08/31 08:25:20;;;;;;;2.40;1.33;;;;;;;;;;5052990;28;20074;-74
2023/08/31 08:27:46;;;;;;;2.53;1.20;;;;;;;;;;5053072;28;20488;-74
2023/08/31 08:30:11;;;;;;;5.07;1.63;;;;;;;;;;5053018;28;20033;-74
2023/08/31 08:32:37;;;;;;;3.13;1.60;;;;;;;;;;5052951;28;20079;-74
2023/08/31 08:35:02;;;;;;;5.15;1.40;;;;;;;;;;5051597;28;20028;-74
2023/08/31 08:37:29;;;;;;;2.80;1.30;;;;;;;;;;5052696;28;20028;-74
2023/08/31 08:39:54;;;;;;;2.67;1.30;;;;;;;;;;5051794;28;20035;-74
2023/08/31 08:42:24;;;;;;;2.95;1.30;;;;;;;;;;5052594;28;20115;-74
2023/08/31 08:44:50;;;;;;;3.30;1.30;;;;;;;;;;5052704;28;20033;-74
2023/08/31 08:47:16;;;;;;;2.95;1.50;;;;;;;;;;5052749;28;20117;-74
2023/08/31 08:49:42;;;;;;;2.95;1.25;;;;;;;;;;5053209;28;20431;-74
2023/08/31 08:52:08;;;;;;;6.85;1.45;;;;;;;;;;5052839;28;20483;-74
2023/08/31 08:54:35;;;;;;;1.80;1.27;;;;;;;;;;5052717;28;20039;-74
2023/08/31 08:57:00;;;;;;;2.55;1.23;;;;;;;;;;5052698;28;20454;-74
2023/08/31 08:59:27;;;;;;;4.40;1.40;;;;;;;;;;5052654;28;20100;-74
2023/08/31 09:01:52;;;;;;;2.05;1.10;;;;;;;;;;5051290;28;20036;-74
2023/08/31 09:04:18;;;;;;;4.38;1.20;;;;;;;;;;5052562;28;20025;-74
2023/08/31 09:06:44;;;;;;;2.92;1.30;;;;;;;;;;5052661;28;20074;-74
2023/08/31 09:09:10;;;;;;;3.83;1.33;;;;;;;;;;5053014;28;20033;-74
2023/08/31 09:11:40;;;;;;;1.70;1.10;;;;;;;;;;5051497;28;20025;-75
2023/08/31 09:14:16;;;;;;;2.88;0.90;;;;;;;;;;5051628;28;20027;-75
2023/08/31 09:16:48;;;;;;;4.93;1.20;;;;;;;;;;5052477;28;20389;-75
2023/08/31 09:19:23;;;;;;;3.63;1.45;;;;;;;;;;5052420;28;20083;-75
2023/08/31 09:21:50;;;;;;;3.08;1.30;;;;;;;;;;5051978;28;20365;-75
2023/08/31 09:24:17;;;;;;;1.85;1.02;;;;;;;;;;5052447;28;20396;-76
2023/08/31 09:26:43;;;;;;;3.13;1.40;;;;;;;;;;5051253;28;20078;-75
2023/08/31 09:29:09;;;;;;;2.20;1.27;;;;;;;;;;5052237;28;20029;-75
2023/08/31 09:31:34;;;;;;;3.72;1.30;;;;;;;;;;5051172;28;20047;-75
2023/08/31 09:34:01;;;;;;;4.05;1.48;;;;;;;;;;5052514;28;20032;-75
2023/08/31 09:36:28;;;;;;;1.90;1.23;;;;;;;;;;5052414;28;20032;-75
2023/08/31 09:38:57;;;;;;;2.17;1.25;;;;;;;;;;5052148;28;20106;-75
2023/08/31 09:41:22;;;;;;;1.45;1.02;;;;;;;;;;5051951;28;20029;-76
2023/08/31 09:43:48;;;;;;;1.73;1.30;;;;;;;;;;5053256;28;20051;-74
2023/08/31 09:46:14;;;;;;;2.27;1.10;;;;;;;;;;5052693;28;20024;-75
2023/08/31 09:48:40;;;;;;;2.45;1.13;;;;;;;;;;5049614;28;20597;-76
2023/08/31 09:51:05;;;;;;;2.47;1.15;;;;;;;;;;5049500;28;20029;-77
2023/08/31 09:53:31;;;;;;;2.75;1.20;;;;;;;;;;5051417;28;20032;-76
2023/08/31 09:55:57;;;;;;;2.95;1.30;;;;;;;;;;5053668;28;20508;-75
2023/08/31 09:58:23;;;;;;;2.28;1.30;;;;;;;;;;5054116;28;20491;-76
2023/08/31 10:00:51;;;;;;;2.03;1.35;;;;;;;;;;5052783;28;20103;-75
2023/08/31 10:03:16;;;;;;;4.82;1.40;;;;;;;;;;5054710;28;20039;-75
2023/08/31 10:05:47;;;;;;;1.98;1.30;;;;;;;;;;5055704;28;20037;-75
2023/08/31 10:08:13;;;;;;;3.75;1.30;;;;;;;;;;5055621;28;20118;-76
2023/08/31 10:10:40;;;;;;;3.47;1.40;;;;;;;;;;5054749;28;20032;-75
2023/08/31 10:13:05;;;;;;;1.33;1.13;;;;;;;;;;5056196;28;20031;-75
2023/08/31 10:15:35;;;;;;;2.08;1.10;;;;;;;;;;5056077;28;20025;-74
2023/08/31 10:18:02;;;;;;;2.72;1.40;;;;;;;;;;5055446;28;20040;-75
2023/08/31 10:20:31;;;;;;;4.20;1.30;;;;;;;;;;5056615;28;20464;-75
2023/08/31 10:23:00;;;;;;;2.85;1.20;;;;;;;;;;5055563;28;20476;-75
2023/08/31 10:25:26;;;;;;;2.17;1.30;;;;;;;;;;5055177;28;20506;-75
2023/08/31 10:27:52;;;;;;;1.80;1.13;;;;;;;;;;5055574;28;20503;-75
2023/08/31 10:30:25;;;;;;;4.20;1.15;;;;;;;;;;5055427;28;20033;-75
2023/08/31 10:33:09;;;;;;;3.30;1.30;;;;;;;;;;5055342;28;20028;-74
2023/08/31 10:35:55;;;;;;;2.10;1.40;;;;;;;;;;5054028;28;20032;-75
2023/08/31 10:38:31;;;;;;;4.88;1.25;;;;;;;;;;5054849;28;20262;-75
2023/08/31 10:41:05;;;;;;;4.32;1.30;;;;;;;;;;5055071;28;20031;-74
2023/08/31 10:43:59;;;;;;;2.75;1.13;;;;;;;;;;5055033;28;20032;-75
2023/08/31 10:46:35;;;;;;;1.58;1.30;;;;;;;;;;5055318;28;20036;-74
2023/08/31 10:49:09;;;;;;;1.38;1.10;;;;;;;;;;5055014;28;20492;-74
2023/08/31 10:51:45;;;;;;;1.38;1.00;;;;;;;;;;5053762;28;20047;-74
2023/08/31 10:54:13;;;;;;;1.65;1.00;;;;;;;;;;5053186;28;20031;-75
2023/08/31 10:56:58;;;;;;;2.05;0.73;;;;;;;;;;5054161;28;20032;-75
2023/08/31 10:59:24;;;;;;;1.67;1.10;;;;;;;;;;5053704;28;20032;-76
2023/08/31 11:01:58;;;;;;;8.52;1.00;;;;;;;;;;5054898;28;20025;-74
2023/08/31 11:04:27;;;;;;;2.00;1.00;;;;;;;;;;5054299;28;20032;-74
2023/08/31 11:07:12;;;;;;;3.97;1.00;;;;;;;;;;5053791;28;20036;-77
2023/08/31 11:09:37;;;;;;;1.48;0.80;;;;;;;;;;5054285;28;20104;-78
2023/08/31 11:12:06;;;;;;;2.70;0.88;;;;;;;;;;5054315;28;20059;-77
2023/08/31 11:14:31;;;;;;;1.75;0.82;;;;;;;;;;5055120;28;20108;-77
2023/08/31 11:16:57;;;;;;;1.35;0.95;;;;;;;;;;5053208;28;20096;-79
2023/08/31 11:19:22;;;;;;;2.28;1.20;;;;;;;;;;5055292;28;20025;-80
2023/08/31 11:21:48;;;;;;;2.83;1.00;;;;;;;;;;5055478;28;20062;-77
2023/08/31 11:24:13;;;;;;;1.92;1.15;;;;;;;;;;5055571;28;20589;-77
2023/08/31 11:26:39;;;;;;;5.47;0.80;;;;;;;;;;5053119;28;20036;-77
2023/08/31 11:29:08;;;;;;;5.80;0.90;;;;;;;;;;5055849;28;20483;-78
2023/08/31 11:31:40;;;;;;;1.65;0.88;;;;;;;;;;5054407;28;20021;-77
2023/08/31 11:34:07;;;;;;;2.88;0.80;;;;;;;;;;5052900;28;20020;-77
2023/08/31 11:36:33;;;;;;;2.80;0.70;;;;;;;;;;5053431;28;20022;-78
2023/08/31 11:38:58;;;;;;;5.68;0.93;;;;;;;;;;5054647;28;20040;-78
2023/08/31 11:41:24;;;;;;;4.85;0.75;;;;;;;;;;5053265;28;20511;-77
2023/08/31 11:43:50;;;;;;;0.88;0.68;;;;;;;;;;5054827;28;20120;-78
2023/08/31 11:46:16;;;;;;;1.25;0.70;;;;;;;;;;5052812;28;20028;-78
2023/08/31 11:48:43;;;;;;;1.02;0.80;;;;;;;;;;5054211;28;20032;-78
2023/08/31 11:51:08;;;;;;;2.22;1.27;;;;;;;;;;5054497;28;20483;-77
2023/08/31 11:53:33;;;;;;;1.05;0.90;;;;;;;;;;5054415;28;20033;-77
2023/08/31 11:56:02;;;;;;;2.50;1.00;;;;;;;;;;5054011;28;20029;-76
2023/08/31 11:58:27;;;;;;;3.03;1.02;;;;;;;;;;5054009;28;20400;-78
2023/08/31 12:00:59;;;;;;;2.88;0.80;;;;;;;;;;5054201;28;20025;-77
2023/08/31 12:03:25;;;;;;;1.92;1.00;;;;;;;;;;5054106;28;20028;-77
2023/08/31 12:05:54;;;;;;;2.17;0.70;;;;;;;;;;5053669;28;20078;-77
2023/08/31 12:08:27;;;;;;;1.05;0.70;;;;;;;;;;5054608;28;20491;-78
2023/08/31 12:10:52;;;;;;;1.17;0.82;;;;;;;;;;5054036;28;20021;-78
2023/08/31 12:13:17;;;;;;;3.22;0.90;;;;;;;;;;5054656;28;20107;-77
2023/08/31 12:15:43;;;;;;;0.70;0.70;;;;;;;;;;5052101;28;20024;-76
2023/08/31 12:18:13;;;;;;;0.88;0.80;;;;;;;;;;5052366;28;20079;-75
2023/08/31 12:20:45;;;;;;;2.70;0.90;;;;;;;;;;5052848;28;20021;-76
2023/08/31 12:23:11;;;;;;;0.85;0.70;;;;;;;;;;5053211;28;20071;-76
2023/08/31 12:25:36;;;;;;;1.90;0.77;;;;;;;;;;5053145;28;20049;-76
2023/08/31 12:28:02;;;;;;;2.55;0.77;;;;;;;;;;5051708;28;20026;-76
2023/08/31 12:30:28;;;;;;;2.28;1.00;;;;;;;;;;5051792;28;20029;-77
2023/08/31 12:32:53;;;;;;;1.42;0.95;;;;;;;;;;5051776;28;20480;-76
2023/08/31 12:35:18;;;;;;;1.88;0.80;;;;;;;;;;5051821;28;20108;-76
2023/08/31 12:37:44;;;;;;;2.22;1.00;;;;;;;;;;5053051;28;20476;-76
2023/08/31 12:40:10;;;;;;;1.90;0.85;;;;;;;;;;5051812;28;20036;-76
2023/08/31 12:42:35;;;;;;;2.42;1.00;;;;;;;;;;5052969;28;20541;-76
2023/08/31 12:45:01;;;;;;;2.63;1.20;;;;;;;;;;5053168;28;20040;-76
2023/08/31 12:47:26;;;;;;;2.83;1.17;;;;;;;;;;5052690;28;20033;-75
2023/08/31 12:49:51;;;;;;;2.83;0.90;;;;;;;;;;5051755;28;20029;-76
2023/08/31 12:52:17;;;;;;;1.50;0.90;;;;;;;;;;5052909;28;20029;-74
2023/08/31 12:54:42;;;;;;;1.27;0.90;;;;;;;;;;5052736;28;20273;-75
2023/08/31 12:57:07;;;;;;;1.97;0.97;;;;;;;;;;5052928;28;20621;-75
2023/08/31 12:59:32;;;;;;;1.10;0.90;;;;;;;;;;5052040;28;20254;-75
2023/08/31 13:01:57;;;;;;;1.40;1.08;;;;;;;;;;5053236;28;20265;-74
2023/08/31 13:04:23;;;;;;;1.57;0.70;;;;;;;;;;5052878;28;20102;-74
2023/08/31 13:06:48;;;;;;;1.25;1.00;;;;;;;;;;5051829;28;20262;-75
2023/08/31 13:09:13;;;;;;;2.05;0.90;;;;;;;;;;5052662;28;20027;-72
2023/08/31 13:11:39;;;;;;;1.77;0.90;;;;;;;;;;5052868;28;20542;-74
2023/08/31 13:14:04;;;;;;;2.70;0.82;;;;;;;;;;5050309;28;20393;-75
2023/08/31 13:16:30;;;;;;;1.50;1.10;;;;;;;;;;5050324;28;20485;-75
2023/08/31 13:18:55;;;;;;;3.38;1.02;;;;;;;;;;5051364;28;20277;-75
2023/08/31 13:21:20;;;;;;;1.55;0.85;;;;;;;;;;5051785;28;20028;-76
2023/08/31 13:23:46;;;;;;;1.50;1.00;;;;;;;;;;5052275;28;20070;-75
2023/08/31 13:26:12;;;;;;;1.02;0.88;;;;;;;;;;5052702;28;20269;-75
2023/08/31 13:28:37;;;;;;;2.50;0.90;;;;;;;;;;5053757;28;20098;-75
2023/08/31 13:31:03;;;;;;;3.55;1.00;;;;;;;;;;5056692;28;20462;-75
2023/08/31 13:33:31;;;;;;;2.63;1.00;;;;;;;;;;5056850;28;20021;-75
2023/08/31 13:35:58;;;;;;;2.35;0.80;;;;;;;;;;5056515;28;20016;-76
2023/08/31 13:38:27;;;;;;;1.85;0.90;;;;;;;;;;5055183;28;20107;-76
2023/08/31 13:40:59;;;;;;;3.13;1.00;;;;;;;;;;5056174;28;20029;-77
2023/08/31 13:43:24;;;;;;;3.53;1.02;;;;;;;;;;5054890;28;20025;-75
2023/08/31 13:45:49;;;;;;;1.95;1.00;;;;;;;;;;5055174;28;20074;-76
2023/08/31 13:48:15;;;;;;;1.48;0.90;;;;;;;;;;5054797;28;20373;-76
2023/08/31 13:50:40;;;;;;;1.63;0.90;;;;;;;;;;5056163;28;20404;-76
2023/08/31 13:53:05;;;;;;;1.00;0.80;;;;;;;;;;5056497;28;20095;-76
2023/08/31 13:55:32;;;;;;;1.08;0.95;;;;;;;;;;5055919;28;20266;-75
2023/08/31 13:58:03;;;;;;;2.33;1.20;;;;;;;;;;5055870;28;20545;-75
2023/08/31 14:00:29;;;;;;;5.28;1.05;;;;;;;;;;5057374;28;20028;-76
2023/08/31 14:02:54;;;;;;;2.80;1.00;;;;;;;;;;5055905;28;20078;-75
2023/08/31 14:05:19;;;;;;;1.73;1.10;;;;;;;;;;5055618;28;20355;-75
2023/08/31 14:07:45;;;;;;;1.98;1.13;;;;;;;;;;5055604;28;20029;-75
2023/08/31 14:10:10;;;;;;;1.90;1.02;;;;;;;;;;5055619;28;20025;-75
2023/08/31 14:12:39;;;;;;;1.25;1.00;;;;;;;;;;5054493;28;20029;-75
2023/08/31 14:15:06;;;;;;;1.60;1.10;;;;;;;;;;5055471;28;20024;-75
2023/08/31 14:17:31;;;;;;;2.75;0.93;;;;;;;;;;5037392;28;20048;-75
2023/08/31 14:19:59;;;;;;;1.38;1.10;;;;;;;;;;5055776;28;20021;-75
2023/08/31 14:22:24;;;;;;;2.47;1.27;;;;;;;;;;5054236;28;20016;-76
2023/08/31 14:24:49;;;;;;;9.32;1.48;;;;;;;;;;5055219;28;20042;-75
2023/08/31 14:27:14;;;;;;;3.20;1.17;;;;;;;;;;5055476;28;20024;-75
2023/08/31 14:29:40;;;;;;;1.58;1.00;;;;;;;;;;5055313;28;20048;-75
2023/08/31 14:32:05;;;;;;;3.08;1.30;;;;;;;;;;5055243;28;20060;-75
2023/08/31 14:34:31;;;;;;;1.67;1.30;;;;;;;;;;5055227;28;20020;-75
2023/08/31 14:36:58;;;;;;;2.50;1.15;;;;;;;;;;5055281;28;20104;-75
2023/08/31 14:39:29;;;;;;;2.22;1.20;;;;;;;;;;5054546;28;20037;-75